Time;durP1;ratioP1;P1;durP2;ratioP2;P2;SDS_P1;SDS_P2;PMS_P1;PMS_P2;Temp;Humidity;BMP_temperature;BMP_pressure;BME280_temperature;BME280_humidity;BME280_pressure;Samples;Min_cycle;Max_cycle;Signal;HPM_P1;HPM_P2
2022/08/01 00:00:07;;;;;;;;;;;;;;;;;;4949062;29;20357;-80
2022/08/01 00:02:33;;;;;;;;;;;;;;;;;;4948530;29;19915;-83
2022/08/01 00:04:59;;;;;;;;;;;;;;;;;;4937202;29;19961;-79
2022/08/01 00:07:25;;;;;;;;;;;;;;;;;;4924891;29;19919;-81
2022/08/01 00:09:50;;;;;;;;;;;;;;;;;;4947356;29;19916;-81
2022/08/01 00:12:15;;;;;;;;;;;;;;;;;;4928532;29;19915;-80
2022/08/01 00:14:41;;;;;;;;;;;;;;;;;;4917984;29;19923;-81
2022/08/01 00:17:06;;;;;;;;;;;;;;;;;;4937488;29;19919;-82
2022/08/01 00:19:32;;;;;;;;;;;;;;;;;;4952935;29;19926;-78
2022/08/01 00:21:57;;;;;;;;;;;;;;;;;;4942822;29;20330;-78
2022/08/01 00:24:22;;;;;;;;;;;;;;;;;;4944922;29;19968;-81
2022/08/01 00:26:48;;;;;;;;;;;;;;;;;;4939816;29;20006;-85
2022/08/01 00:29:13;;;;;;;;;;;;;;;;;;4946518;29;19919;-83
2022/08/01 00:31:38;;;;;;;;;;;;;;;;;;4923073;29;19938;-83
2022/08/01 00:34:04;;;;;;;;;;;;;;;;;;4937054;29;19915;-84
2022/08/01 00:36:29;;;;;;;;;;;;;;;;;;4946897;29;19953;-82
2022/08/01 00:38:55;;;;;;;;;;;;;;;;;;4943968;29;19970;-81
2022/08/01 00:41:20;;;;;;;;;;;;;;;;;;4943225;29;19925;-78
2022/08/01 00:43:45;;;;;;;;;;;;;;;;;;4950661;29;20279;-78
2022/08/01 00:46:11;;;;;;;;;;;;;;;;;;4943425;29;20022;-80
2022/08/01 00:48:36;;;;;;;;;;;;;;;;;;4951239;28;19925;-78
2022/08/01 00:51:01;;;;;;;;;;;;;;;;;;4951004;29;19922;-79
2022/08/01 00:53:27;;;;;;;;;;;;;;;;;;4937374;29;19915;-81
2022/08/01 00:55:52;;;;;;;;;;;;;;;;;;4942730;29;20434;-80
2022/08/01 00:58:17;;;;;;;;;;;;;;;;;;4945652;29;19915;-81
2022/08/01 01:00:43;;;;;;;;;;;;;;;;;;4932492;29;19915;-80
2022/08/01 01:03:08;;;;;;;;;;;;;;;;;;4926900;29;19915;-80
2022/08/01 01:05:34;;;;;;;;;;;;;;;;;;4952588;29;19915;-83
2022/08/01 01:07:59;;;;;;;;;;;;;;;;;;4930091;29;20383;-83
2022/08/01 01:10:24;;;;;;;;;;;;;;;;;;4938716;29;19915;-81
2022/08/01 01:12:51;;;;;;;;;;;;;;;;;;4934679;29;19919;-81
2022/08/01 01:15:16;;;;;;;;;;;;;;;;;;4921731;29;19919;-81
2022/08/01 01:17:42;;;;;;;;;;;;;;;;;;4937084;29;19915;-82
2022/08/01 01:20:07;;;;;;;;;;;;;;;;;;4944407;29;20014;-78
2022/08/01 01:22:32;;;;;;;;;;;;;;;;;;4930772;29;19915;-78
2022/08/01 01:24:58;;;;;;;;;;;;;;;;;;4951390;29;20359;-80
2022/08/01 01:27:23;;;;;;;;;;;;;;;;;;4944302;29;19994;-80
2022/08/01 01:29:48;;;;;;;;;;;;;;;;;;4962379;29;19957;-82
2022/08/01 01:32:14;;;;;;;;;;;;;;;;;;4962368;29;19914;-83
2022/08/01 01:34:39;;;;;;;;;;;;;;;;;;4967791;29;19941;-82
2022/08/01 01:37:04;;;;;;;;;;;;;;;;;;4917586;29;19925;-83
2022/08/01 01:39:30;;;;;;;;;;;;;;;;;;4953534;29;19987;-81
2022/08/01 01:41:55;;;;;;;;;;;;;;;;;;4949531;29;19954;-82
2022/08/01 01:44:20;;;;;;;;;;;;;;;;;;4938023;29;19934;-80
2022/08/01 01:46:46;;;;;;;;;;;;;;;;;;4936942;29;19914;-81
2022/08/01 01:49:11;;;;;;;;;;;;;;;;;;4952244;29;19918;-76
2022/08/01 01:51:36;;;;;;;;;;;;;;;;;;4951357;29;19919;-83
2022/08/01 01:54:02;;;;;;;;;;;;;;;;;;4942083;29;19961;-82
2022/08/01 01:56:27;;;;;;;;;;;;;;;;;;4942395;29;19921;-81
2022/08/01 01:58:53;;;;;;;;;;;;;;;;;;4949395;29;20058;-82
2022/08/01 02:01:18;;;;;;;;;;;;;;;;;;4950658;28;19915;-81
2022/08/01 02:03:43;;;;;;;;;;;;;;;;;;4947590;29;19961;-82
2022/08/01 02:06:09;;;;;;;;;;;;;;;;;;4943099;29;19918;-82
2022/08/01 02:08:34;;;;;;;;;;;;;;;;;;4911889;29;19919;-82
2022/08/01 02:11:18;;;;;;;;;;;;;;;;;;4937916;29;19921;-82
2022/08/01 02:13:43;;;;;;;;;;;;;;;;;;4941945;28;19922;-80
2022/08/01 02:16:10;;;;;;;;;;;;;;;;;;4942462;29;20302;-82
2022/08/01 02:18:36;;;;;;;;;;;;;;;;;;4948281;29;19928;-81
2022/08/01 02:21:01;;;;;;;;;;;;;;;;;;4942834;29;19911;-81
2022/08/01 02:23:27;;;;;;;;;;;;;;;;;;4933645;29;20017;-83
2022/08/01 02:25:52;;;;;;;;;;;;;;;;;;4940967;29;20347;-89
2022/08/01 02:28:17;;;;;;;;;;;;;;;;;;4922535;29;19915;-77
2022/08/01 02:30:43;;;;;;;;;;;;;;;;;;4933789;29;19993;-77
2022/08/01 02:33:09;;;;;;;;;;;;;;;;;;4934039;29;19930;-79
2022/08/01 02:35:34;;;;;;;;;;;;;;;;;;4934938;29;19915;-78
2022/08/01 02:38:00;;;;;;;;;;;;;;;;;;4948401;29;19919;-77
2022/08/01 02:40:25;;;;;;;;;;;;;;;;;;4929374;29;19918;-78
2022/08/01 02:42:51;;;;;;;;;;;;;;;;;;4925886;29;19986;-79
2022/08/01 02:45:16;;;;;;;;;;;;;;;;;;4928315;29;20272;-79
2022/08/01 02:47:41;;;;;;;;;;;;;;;;;;4932168;29;19915;-79
2022/08/01 02:50:08;;;;;;;;;;;;;;;;;;4934075;29;20021;-79
2022/08/01 02:52:33;;;;;;;;;;;;;;;;;;4949571;29;19969;-78
2022/08/01 02:54:58;;;;;;;;;;;;;;;;;;4949771;29;20001;-79
2022/08/01 02:57:24;;;;;;;;;;;;;;;;;;4934121;29;19921;-79
2022/08/01 02:59:49;;;;;;;;;;;;;;;;;;4935085;29;19929;-79
2022/08/01 03:02:14;;;;;;;;;;;;;;;;;;4934918;29;19915;-79
2022/08/01 03:04:40;;;;;;;;;;;;;;;;;;4952787;29;19969;-79
2022/08/01 03:07:06;;;;;;;;;;;;;;;;;;4936759;29;19918;-80
2022/08/01 03:09:31;;;;;;;;;;;;;;;;;;4953858;29;19915;-82
2022/08/01 03:11:57;;;;;;;;;;;;;;;;;;4950379;28;20351;-79
2022/08/01 03:14:22;;;;;;;;;;;;;;;;;;4950113;23;19964;-81
2022/08/01 03:16:47;;;;;;;;;;;;;;;;;;4921328;29;19923;-81
2022/08/01 03:19:12;;;;;;;;;;;;;;;;;;4953165;29;19970;-81
2022/08/01 03:21:38;;;;;;;;;;;;;;;;;;4937377;29;19918;-81
2022/08/01 03:24:03;;;;;;;;;;;;;;;;;;4952880;29;19923;-80
2022/08/01 03:26:28;;;;;;;;;;;;;;;;;;4938310;29;19915;-81
2022/08/01 03:28:54;;;;;;;;;;;;;;;;;;4938155;29;19921;-82
2022/08/01 03:31:19;;;;;;;;;;;;;;;;;;4921470;29;19977;-81
2022/08/01 03:33:45;;;;;;;;;;;;;;;;;;4938044;29;19915;-81
2022/08/01 03:36:10;;;;;;;;;;;;;;;;;;4920592;29;19921;-83
2022/08/01 03:38:36;;;;;;;;;;;;;;;;;;4921136;29;19923;-81
2022/08/01 03:41:01;;;;;;;;;;;;;;;;;;4936594;29;19919;-78
2022/08/01 03:43:27;;;;;;;;;;;;;;;;;;4936447;29;19915;-79
2022/08/01 03:45:53;;;;;;;;;;;;;;;;;;4937715;29;19918;-79
2022/08/01 03:48:18;;;;;;;;;;;;;;;;;;4936770;29;19915;-77
2022/08/01 03:50:43;;;;;;;;;;;;;;;;;;4936572;29;19922;-78
2022/08/01 03:53:09;;;;;;;;;;;;;;;;;;4935567;29;20093;-79
2022/08/01 03:55:35;;;;;;;;;;;;;;;;;;4937824;29;19963;-80
2022/08/01 03:58:00;;;;;;;;;;;;;;;;;;4936764;29;19915;-78
2022/08/01 04:00:25;;;;;;;;;;;;;;;;;;4937703;29;19926;-78
2022/08/01 04:02:51;;;;;;;;;;;;;;;;;;4937200;29;20374;-78
2022/08/01 04:05:16;;;;;;;;;;;;;;;;;;4937512;29;19915;-78
2022/08/01 04:07:43;;;;;;;;;;;;;;;;;;4937219;29;19926;-78
2022/08/01 04:10:08;;;;;;;;;;;;;;;;;;4936375;29;20010;-80
2022/08/01 04:12:34;;;;;;;;;;;;;;;;;;4936761;29;19998;-81
2022/08/01 04:14:59;;;;;;;;;;;;;;;;;;4935584;29;19918;-82
2022/08/01 04:17:24;;;;;;;;;;;;;;;;;;4920087;29;20390;-82
2022/08/01 04:19:50;;;;;;;;;;;;;;;;;;4936098;29;19926;-81
2022/08/01 04:22:15;;;;;;;;;;;;;;;;;;4937180;29;20341;-81
2022/08/01 04:24:41;;;;;;;;;;;;;;;;;;4941369;28;19961;-80
2022/08/01 04:27:07;;;;;;;;;;;;;;;;;;4937782;28;19919;-82
2022/08/01 04:29:32;;;;;;;;;;;;;;;;;;4951637;29;19921;-81
2022/08/01 04:31:59;;;;;;;;;;;;;;;;;;4937014;29;19921;-81
2022/08/01 04:34:25;;;;;;;;;;;;;;;;;;4936718;29;19925;-82
2022/08/01 04:36:51;;;;;;;;;;;;;;;;;;4943798;29;19915;-80
2022/08/01 04:39:16;;;;;;;;;;;;;;;;;;4941055;29;20369;-81
2022/08/01 04:41:41;;;;;;;;;;;;;;;;;;4943540;29;19978;-80
2022/08/01 04:44:07;;;;;;;;;;;;;;;;;;4956476;28;19915;-81
2022/08/01 04:46:32;;;;;;;;;;;;;;;;;;4956539;29;19970;-80
2022/08/01 04:48:57;;;;;;;;;;;;;;;;;;4956944;29;19914;-80
2022/08/01 04:51:24;;;;;;;;;;;;;;;;;;4955989;29;20382;-79
2022/08/01 04:53:50;;;;;;;;;;;;;;;;;;4955161;29;19954;-79
2022/08/01 04:56:16;;;;;;;;;;;;;;;;;;4955859;28;19922;-79
2022/08/01 04:58:41;;;;;;;;;;;;;;;;;;4953417;29;20322;-80
2022/08/01 05:01:06;;;;;;;;;;;;;;;;;;4955747;29;19925;-80
2022/08/01 05:03:32;;;;;;;;;;;;;;;;;;4949991;29;19910;-79
2022/08/01 05:05:57;;;;;;;;;;;;;;;;;;4968670;28;19922;-78
2022/08/01 05:08:22;;;;;;;;;;;;;;;;;;4931988;29;19922;-81
2022/08/01 05:10:48;;;;;;;;;;;;;;;;;;4943031;29;19915;-79
2022/08/01 05:13:13;;;;;;;;;;;;;;;;;;4948253;29;19961;-80
2022/08/01 05:15:38;;;;;;;;;;;;;;;;;;4949171;29;19919;-81
2022/08/01 05:18:04;;;;;;;;;;;;;;;;;;4946731;29;19924;-80
2022/08/01 05:20:29;;;;;;;;;;;;;;;;;;4927231;29;20394;-81
2022/08/01 05:22:54;;;;;;;;;;;;;;;;;;4942010;29;20411;-79
2022/08/01 05:25:20;;;;;;;;;;;;;;;;;;4944204;29;19914;-80
2022/08/01 05:27:45;;;;;;;;;;;;;;;;;;4944121;29;19925;-80
2022/08/01 05:30:11;;;;;;;;;;;;;;;;;;4942034;29;19911;-78
2022/08/01 05:32:36;;;;;;;;;;;;;;;;;;4936444;29;19915;-77
2022/08/01 05:35:01;;;;;;;;;;;;;;;;;;4935154;29;20009;-78
2022/08/01 05:37:27;;;;;;;;;;;;;;;;;;4950849;29;19936;-79
2022/08/01 05:39:52;;;;;;;;;;;;;;;;;;4935925;29;19937;-79
2022/08/01 05:42:17;;;;;;;;;;;;;;;;;;4935082;29;19919;-79
2022/08/01 05:44:43;;;;;;;;;;;;;;;;;;4935279;29;20398;-79
2022/08/01 05:47:08;;;;;;;;;;;;;;;;;;4935469;29;20299;-79
2022/08/01 05:49:33;;;;;;;;;;;;;;;;;;4934231;29;19985;-79
2022/08/01 05:52:00;;;;;;;;;;;;;;;;;;4918207;29;19946;-80
2022/08/01 05:54:26;;;;;;;;;;;;;;;;;;4934670;29;20032;-80
2022/08/01 05:57:01;;;;;;;;;;;;;;;;;;5068914;28;19944;-78
2022/08/01 05:59:26;;;;;;;;;;;;;;;;;;5068652;28;19912;-80
2022/08/01 06:01:52;;;;;;;;;;;;;;;;;;5068132;28;19909;-78
2022/08/01 06:04:17;;;;;;;;;;;;;;;;;;5069139;28;19912;-80
2022/08/01 06:06:42;;;;;;;;;;;;;;;;;;5068211;28;19955;-78
2022/08/01 06:09:08;;;;;;;;;;;;;;;;;;5069338;28;19952;-80
2022/08/01 06:11:33;;;;;;;;;;;;;;;;;;5051479;28;20375;-80
2022/08/01 06:13:58;;;;;;;;;;;;;;;;;;5051136;28;19917;-78
2022/08/01 06:16:24;;;;;;;;;;;;;;;;;;5033074;28;19975;-79
2022/08/01 06:18:49;;;;;;;;;;;;;;;;;;5047381;28;20308;-79
2022/08/01 06:21:14;;;;;;;;;;;;;;;;;;5047555;28;20052;-80
2022/08/01 06:23:41;;;;;;;;;;;;;;;;;;5048288;28;19971;-80
2022/08/01 06:26:07;;;;;;;;;;;;;;;;;;5047389;28;19920;-79
2022/08/01 06:28:32;;;;;;;;;;;;;;;;;;5047377;28;19913;-79
2022/08/01 06:30:58;;;;;;;;;;;;;;;;;;5049082;28;19917;-78
2022/08/01 06:33:24;;;;;;;;;;;;;;;;;;5046875;28;19919;-79
2022/08/01 06:35:49;;;;;;;;;;;;;;;;;;5047073;28;19921;-79
2022/08/01 06:38:15;;;;;;;;;;;;;;;;;;5048584;28;19920;-78
2022/08/01 06:40:40;;;;;;;;;;;;;;;;;;5030596;28;20364;-80
2022/08/01 06:43:05;;;;;;;;;;;;;;;;;;5048202;28;19924;-81
2022/08/01 06:45:31;;;;;;;;;;;;;;;;;;5047529;28;19913;-79
2022/08/01 06:47:56;;;;;;;;;;;;;;;;;;5048579;28;20387;-80
2022/08/01 06:50:22;;;;;;;;;;;;;;;;;;5066506;28;20418;-79
2022/08/01 06:52:47;;;;;;;;;;;;;;;;;;5067569;28;19916;-81
2022/08/01 06:55:12;;;;;;;;;;;;;;;;;;5074650;28;19924;-80
2022/08/01 06:57:38;;;;;;;;;;;;;;;;;;5088586;28;19913;-80
2022/08/01 07:00:03;;;;;;;;;;;;;;;;;;5070314;28;20314;-83
2022/08/01 07:02:28;;;;;;;;;;;;;;;;;;5088757;28;20406;-83
2022/08/01 07:04:54;;;;;;;;;;;;;;;;;;5069330;28;20375;-81
2022/08/01 07:07:19;;;;;;;;;;;;;;;;;;5063007;28;19916;-80
2022/08/01 07:09:45;;;;;;;;;;;;;;;;;;5056461;28;19912;-82
2022/08/01 07:12:11;;;;;;;;;;;;;;;;;;5067210;28;19983;-79
2022/08/01 07:14:36;;;;;;;;;;;;;;;;;;5054128;28;20011;-80
2022/08/01 07:17:01;;;;;;;;;;;;;;;;;;5054489;28;19992;-79
2022/08/01 07:19:27;;;;;;;;;;;;;;;;;;5054210;28;20330;-79
2022/08/01 07:21:53;;;;;;;;;;;;;;;;;;5054126;28;19913;-79
2022/08/01 07:24:18;;;;;;;;;;;;;;;;;;5056039;28;19913;-79
2022/08/01 07:26:43;;;;;;;;;;;;;;;;;;5074350;28;19955;-80
2022/08/01 07:29:09;;;;;;;;;;;;;;;;;;5073950;28;19973;-80
2022/08/01 07:31:34;;;;;;;;;;;;;;;;;;5056113;28;20394;-80
2022/08/01 07:33:59;;;;;;;;;;;;;;;;;;5073788;28;19978;-79
2022/08/01 07:36:25;;;;;;;;;;;;;;;;;;5073797;28;19924;-78
2022/08/01 07:38:50;;;;;;;;;;;;;;;;;;5072902;28;19998;-79
2022/08/01 07:41:15;;;;;;;;;;;;;;;;;;5055695;28;19938;-79
2022/08/01 07:43:41;;;;;;;;;;;;;;;;;;5073648;28;19922;-79
2022/08/01 07:46:06;;;;;;;;;;;;;;;;;;5055968;28;19920;-79
2022/08/01 07:48:31;;;;;;;;;;;;;;;;;;5074023;28;19913;-79
2022/08/01 07:50:57;;;;;;;;;;;;;;;;;;5056707;28;20421;-80
2022/08/01 07:53:22;;;;;;;;;;;;;;;;;;5055655;28;19944;-79
2022/08/01 07:55:48;;;;;;;;;;;;;;;;;;5055932;28;19916;-80
2022/08/01 07:58:13;;;;;;;;;;;;;;;;;;5074361;28;19958;-80
2022/08/01 08:00:38;;;;;;;;;;;;;;;;;;5055901;28;19916;-79
2022/08/01 08:03:04;;;;;;;;;;;;;;;;;;5055365;28;19923;-79
2022/08/01 08:05:29;;;;;;;;;;;;;;;;;;5073775;28;19913;-80
2022/08/01 08:07:55;;;;;;;;;;;;;;;;;;5073690;28;20295;-79
2022/08/01 08:10:21;;;;;;;;;;;;;;;;;;5055307;28;20012;-79
2022/08/01 08:12:46;;;;;;;;;;;;;;;;;;5035290;28;20404;-80
2022/08/01 08:15:11;;;;;;;;;;;;;;;;;;5037122;28;20003;-79
2022/08/01 08:17:37;;;;;;;;;;;;;;;;;;5036438;28;19913;-79
2022/08/01 08:20:02;;;;;;;;;;;;;;;;;;5018222;28;19913;-79
2022/08/01 08:22:27;;;;;;;;;;;;;;;;;;5003001;28;19913;-78
2022/08/01 08:24:53;;;;;;;;;;;;;;;;;;5035434;28;19912;-78
2022/08/01 08:27:18;;;;;;;;;;;;;;;;;;5036020;28;19916;-79
2022/08/01 08:29:44;;;;;;;;;;;;;;;;;;5019131;28;19919;-78
2022/08/01 08:32:09;;;;;;;;;;;;;;;;;;5035400;28;20284;-79
2022/08/01 08:34:34;;;;;;;;;;;;;;;;;;5018642;28;19978;-78
2022/08/01 08:37:00;;;;;;;;;;;;;;;;;;5018637;28;19971;-79
2022/08/01 08:39:25;;;;;;;;;;;;;;;;;;5035238;28;20384;-78
2022/08/01 08:41:51;;;;;;;;;;;;;;;;;;5035096;28;19913;-78
2022/08/01 08:44:16;;;;;;;;;;;;;;;;;;5065562;28;19978;-79
2022/08/01 08:46:42;;;;;;;;;;;;;;;;;;5038568;28;20384;-79
2022/08/01 08:49:07;;;;;;;;;;;;;;;;;;5038371;28;19913;-78
2022/08/01 08:51:33;;;;;;;;;;;;;;;;;;5072555;28;20295;-79
2022/08/01 08:53:58;;;;;;;;;;;;;;;;;;5037468;28;19916;-78
2022/08/01 08:56:23;;;;;;;;;;;;;;;;;;5054679;28;19923;-80
2022/08/01 08:58:49;;;;;;;;;;;;;;;;;;5072930;28;20099;-78
2022/08/01 09:01:14;;;;;;;;;;;;;;;;;;5053882;28;19939;-78
2022/08/01 09:03:40;;;;;;;;;;;;;;;;;;5037806;28;19922;-79
2022/08/01 09:06:05;;;;;;;;;;;;;;;;;;5072744;28;19991;-80
2022/08/01 09:08:31;;;;;;;;;;;;;;;;;;5074450;28;19954;-88
2022/08/01 09:10:56;;;;;;;;;;;;;;;;;;5039427;28;19913;-84
2022/08/01 09:13:21;;;;;;;;;;;;;;;;;;5023000;28;20333;-88
2022/08/01 09:15:47;;;;;;;;;;;;;;;;;;5013445;23;19979;-77
2022/08/01 09:18:12;;;;;;;;;;;;;;;;;;5030758;28;19913;-78
2022/08/01 09:20:37;;;;;;;;;;;;;;;;;;5031303;28;20292;-77
2022/08/01 09:23:03;;;;;;;;;;;;;;;;;;5047188;28;20379;-77
2022/08/01 09:25:33;;;;;;;;;;;;;;;;;;5028158;28;20273;-77
2022/08/01 09:27:59;;;;;;;;;;;;;;;;;;5034596;28;20384;-77
2022/08/01 09:30:24;;;;;;;;;;;;;;;;;;5012356;28;19913;-77
2022/08/01 09:32:50;;;;;;;;;;;;;;;;;;5038166;28;19913;-81
2022/08/01 09:35:15;;;;;;;;;;;;;;;;;;5033520;28;19913;-82
2022/08/01 09:37:42;;;;;;;;;;;;;;;;;;5040131;28;20415;-82
2022/08/01 09:40:07;;;;;;;;;;;;;;;;;;5018806;28;19953;-82
2022/08/01 09:42:33;;;;;;;;;;;;;;;;;;5037908;28;20374;-83
2022/08/01 09:45:00;;;;;;;;;;;;;;;;;;5030277;28;20230;-83
2022/08/01 09:47:26;;;;;;;;;;;;;;;;;;5039811;28;20016;-84
2022/08/01 09:49:52;;;;;;;;;;;;;;;;;;5024356;28;20360;-84
2022/08/01 09:52:17;;;;;;;;;;;;;;;;;;5029567;28;19912;-83
2022/08/01 09:54:43;;;;;;;;;;;;;;;;;;5031946;28;19917;-86
2022/08/01 09:57:08;;;;;;;;;;;;;;;;;;5044190;28;20356;-84
2022/08/01 09:59:34;;;;;;;;;;;;;;;;;;5028946;28;20253;-83
2022/08/01 10:01:59;;;;;;;;;;;;;;;;;;5040433;28;20454;-85
2022/08/01 10:04:25;;;;;;;;;;;;;;;;;;5029888;28;20438;-83
2022/08/01 10:06:53;;;;;;;;;;;;;;;;;;5035306;28;19917;-83
2022/08/01 10:09:19;;;;;;;;;;;;;;;;;;5042713;28;19993;-83
2022/08/01 10:11:44;;;;;;;;;;;;;;;;;;5027513;28;20396;-84
2022/08/01 10:14:12;;;;;;;;;;;;;;;;;;5021415;28;20180;-84
2022/08/01 10:16:37;;;;;;;;;;;;;;;;;;5046408;28;19917;-84
2022/08/01 10:19:02;;;;;;;;;;;;;;;;;;5039159;28;19913;-84
2022/08/01 10:21:28;;;;;;;;;;;;;;;;;;5047566;28;20007;-85
2022/08/01 10:23:53;;;;;;;;;;;;;;;;;;5037374;28;19921;-85
2022/08/01 10:26:19;;;;;;;;;;;;;;;;;;5019850;28;19920;-85
2022/08/01 10:28:44;;;;;;;;;;;;;;;;;;5034021;28;19944;-84
2022/08/01 10:31:10;;;;;;;;;;;;;;;;;;5043797;28;19920;-84
2022/08/01 10:33:39;;;;;;;;;;;;;;;;;;5025965;28;19920;-84
2022/08/01 10:36:05;;;;;;;;;;;;;;;;;;5027454;28;19925;-84
2022/08/01 10:38:30;;;;;;;;;;;;;;;;;;5016546;28;19914;-84
2022/08/01 10:40:56;;;;;;;;;;;;;;;;;;5020889;28;20007;-90
2022/08/01 10:43:22;;;;;;;;;;;;;;;;;;5050670;28;19936;-87
2022/08/01 10:45:47;;;;;;;;;;;;;;;;;;5057153;28;19917;-87
2022/08/01 10:48:13;;;;;;;;;;;;;;;;;;5044986;28;19939;-86
2022/08/01 10:50:39;;;;;;;;;;;;;;;;;;5039464;28;19949;-85
2022/08/01 10:53:05;;;;;;;;;;;;;;;;;;5052586;28;19913;-86
2022/08/01 10:55:30;;;;;;;;;;;;;;;;;;5036857;28;19917;-86
2022/08/01 10:57:56;;;;;;;;;;;;;;;;;;5033839;28;19935;-86
2022/08/01 11:00:22;;;;;;;;;;;;;;;;;;5031895;28;19986;-86
2022/08/01 11:02:48;;;;;;;;;;;;;;;;;;5035545;28;19917;-86
2022/08/01 11:05:13;;;;;;;;;;;;;;;;;;5058412;28;19914;-87
2022/08/01 11:07:39;;;;;;;;;;;;;;;;;;5021862;28;20348;-85
2022/08/01 11:10:05;;;;;;;;;;;;;;;;;;5030998;28;20035;-86
2022/08/01 11:12:31;;;;;;;;;;;;;;;;;;5045911;28;19929;-86
2022/08/01 11:14:56;;;;;;;;;;;;;;;;;;5036421;28;20353;-87
2022/08/01 11:17:22;;;;;;;;;;;;;;;;;;5036265;28;20417;-87
2022/08/01 11:19:47;;;;;;;;;;;;;;;;;;5039006;28;19917;-87
2022/08/01 11:22:13;;;;;;;;;;;;;;;;;;5048064;28;20284;-86
2022/08/01 11:24:39;;;;;;;;;;;;;;;;;;5040614;28;19980;-86
2022/08/01 11:27:05;;;;;;;;;;;;;;;;;;5039858;28;19949;-86
2022/08/01 11:29:31;;;;;;;;;;;;;;;;;;5012118;28;19912;-86
2022/08/01 11:32:09;;;;;;;;;;;;;;;;;;5048642;28;19921;-84
2022/08/01 11:34:34;;;;;;;;;;;;;;;;;;5058184;28;19948;-86
2022/08/01 11:37:00;;;;;;;;;;;;;;;;;;5026154;28;19924;-85
2022/08/01 11:39:26;;;;;;;;;;;;;;;;;;5050949;28;19913;-86
2022/08/01 11:41:53;;;;;;;;;;;;;;;;;;5043548;28;19967;-87
2022/08/01 11:44:19;;;;;;;;;;;;;;;;;;5036805;28;19909;-86
2022/08/01 11:46:45;;;;;;;;;;;;;;;;;;5052848;28;20257;-86
2022/08/01 11:49:13;;;;;;;;;;;;;;;;;;5037806;28;20372;-86
2022/08/01 11:51:39;;;;;;;;;;;;;;;;;;5036929;28;19967;-85
2022/08/01 11:54:04;;;;;;;;;;;;;;;;;;5034770;28;19917;-86
2022/08/01 11:56:32;;;;;;;;;;;;;;;;;;5025165;28;19917;-88
2022/08/01 11:59:01;;;;;;;;;;;;;;;;;;5055130;28;19928;-86
2022/08/01 12:01:27;;;;;;;;;;;;;;;;;;5043620;28;19956;-88
2022/08/01 12:03:52;;;;;;;;;;;;;;;;;;5057493;28;19940;-87
2022/08/01 12:06:18;;;;;;;;;;;;;;;;;;5049488;28;19913;-88
2022/08/01 12:08:43;;;;;;;;;;;;;;;;;;5042639;28;19964;-86
2022/08/01 12:11:09;;;;;;;;;;;;;;;;;;5024445;28;19915;-86
2022/08/01 12:13:35;;;;;;;;;;;;;;;;;;5041680;28;19913;-86
2022/08/01 12:16:03;;;;;;;;;;;;;;;;;;5053302;28;19924;-87
2022/08/01 12:18:28;;;;;;;;;;;;;;;;;;5043619;28;19920;-86
2022/08/01 12:20:54;;;;;;;;;;;;;;;;;;5056615;28;19916;-87
2022/08/01 12:23:20;;;;;;;;;;;;;;;;;;5054994;28;19963;-85
2022/08/01 12:25:48;;;;;;;;;;;;;;;;;;5048939;28;19956;-86
2022/08/01 12:28:13;;;;;;;;;;;;;;;;;;5024550;28;19913;-85
2022/08/01 12:30:39;;;;;;;;;;;;;;;;;;5032734;28;20000;-86
2022/08/01 12:33:05;;;;;;;;;;;;;;;;;;5016969;28;19909;-86
2022/08/01 12:35:30;;;;;;;;;;;;;;;;;;5020487;28;19917;-85
2022/08/01 12:37:56;;;;;;;;;;;;;;;;;;5063763;28;19912;-86
2022/08/01 12:40:21;;;;;;;;;;;;;;;;;;5039668;28;20260;-87
2022/08/01 12:42:47;;;;;;;;;;;;;;;;;;5021378;28;20283;-86
2022/08/01 12:45:19;;;;;;;;;;;;;;;;;;5049864;28;19960;-87
2022/08/01 12:47:45;;;;;;;;;;;;;;;;;;5015618;28;19948;-86
2022/08/01 12:50:11;;;;;;;;;;;;;;;;;;5048827;28;19949;-87
2022/08/01 12:52:37;;;;;;;;;;;;;;;;;;5001738;28;20301;-88
2022/08/01 12:55:03;;;;;;;;;;;;;;;;;;5023031;28;20023;-88
2022/08/01 12:57:29;;;;;;;;;;;;;;;;;;5049556;28;20004;-80
2022/08/01 12:59:54;;;;;;;;;;;;;;;;;;5035235;28;19913;-80
2022/08/01 13:02:20;;;;;;;;;;;;;;;;;;5032202;28;19944;-80
2022/08/01 13:04:49;;;;;;;;;;;;;;;;;;5011035;28;19918;-80
2022/08/01 13:07:15;;;;;;;;;;;;;;;;;;4996057;28;19968;-80
2022/08/01 13:09:41;;;;;;;;;;;;;;;;;;5021017;28;19913;-79
2022/08/01 13:12:06;;;;;;;;;;;;;;;;;;5048173;28;20411;-79
2022/08/01 13:14:32;;;;;;;;;;;;;;;;;;5028131;28;19920;-78
2022/08/01 13:16:58;;;;;;;;;;;;;;;;;;5050808;28;19928;-77
2022/08/01 13:19:23;;;;;;;;;;;;;;;;;;5034715;28;20019;-78
2022/08/01 13:21:48;;;;;;;;;;;;;;;;;;5052212;28;19967;-79
2022/08/01 13:24:14;;;;;;;;;;;;;;;;;;5051125;28;19940;-79
2022/08/01 13:26:40;;;;;;;;;;;;;;;;;;5051033;28;20399;-80
2022/08/01 13:29:06;;;;;;;;;;;;;;;;;;5051307;28;19912;-80
2022/08/01 13:31:31;;;;;;;;;;;;;;;;;;5038912;28;19921;-81
2022/08/01 13:33:57;;;;;;;;;;;;;;;;;;5047603;28;19967;-80
2022/08/01 13:36:25;;;;;;;;;;;;;;;;;;5047783;28;19967;-79
2022/08/01 13:41:35;;;;;;;;;;;;;;;;;;5031039;28;20007;-79
2022/08/01 13:44:01;;;;;;;;;;;;;;;;;;5024972;28;20340;-80
2022/08/01 13:46:26;;;;;;;;;;;;;;;;;;4995026;28;19913;-80
2022/08/01 13:48:52;;;;;;;;;;;;;;;;;;5010326;28;20292;-80
2022/08/01 13:51:17;;;;;;;;;;;;;;;;;;5031077;28;20296;-80
2022/08/01 13:53:43;;;;;;;;;;;;;;;;;;5031328;28;19955;-81
2022/08/01 13:56:08;;;;;;;;;;;;;;;;;;5013935;28;20206;-81
2022/08/01 13:58:34;;;;;;;;;;;;;;;;;;5030565;28;20395;-80
2022/08/01 14:00:59;;;;;;;;;;;;;;;;;;5014959;28;19909;-80
2022/08/01 14:03:25;;;;;;;;;;;;;;;;;;5014359;28;20264;-81
2022/08/01 14:05:51;;;;;;;;;;;;;;;;;;5014117;28;20280;-80
2022/08/01 14:08:16;;;;;;;;;;;;;;;;;;5031839;28;19949;-80
2022/08/01 14:10:42;;;;;;;;;;;;;;;;;;5027480;28;19917;-80
2022/08/01 14:13:07;;;;;;;;;;;;;;;;;;5027436;28;19928;-80
2022/08/01 14:15:32;;;;;;;;;;;;;;;;;;4993930;28;19987;-80
2022/08/01 14:17:58;;;;;;;;;;;;;;;;;;5032892;28;20008;-80
2022/08/01 14:20:24;;;;;;;;;;;;;;;;;;5018161;28;19924;-80
2022/08/01 14:22:49;;;;;;;;;;;;;;;;;;5034045;28;19948;-80
2022/08/01 14:25:15;;;;;;;;;;;;;;;;;;5034544;28;19913;-80
2022/08/01 14:27:41;;;;;;;;;;;;;;;;;;5035756;28;19913;-80
2022/08/01 14:30:06;;;;;;;;;;;;;;;;;;5035594;28;20376;-80
2022/08/01 14:32:33;;;;;;;;;;;;;;;;;;5035576;28;19921;-80
2022/08/01 14:34:58;;;;;;;;;;;;;;;;;;5020000;28;19920;-80
2022/08/01 14:37:24;;;;;;;;;;;;;;;;;;5051590;28;19917;-80
2022/08/01 14:39:49;;;;;;;;;;;;;;;;;;5012919;28;20284;-80
2022/08/01 14:42:15;;;;;;;;;;;;;;;;;;5034548;28;20292;-80
2022/08/01 14:44:40;;;;;;;;;;;;;;;;;;5033809;28;20160;-80
2022/08/01 14:47:06;;;;;;;;;;;;;;;;;;5034175;28;19963;-80
2022/08/01 14:49:31;;;;;;;;;;;;;;;;;;5033872;28;19920;-80
2022/08/01 14:51:57;;;;;;;;;;;;;;;;;;5033707;28;19920;-80
2022/08/01 14:54:23;;;;;;;;;;;;;;;;;;5033551;28;19913;-80
2022/08/01 14:56:48;;;;;;;;;;;;;;;;;;5045628;28;19925;-80
2022/08/01 14:59:14;;;;;;;;;;;;;;;;;;5034259;28;19917;-79
2022/08/01 15:01:39;;;;;;;;;;;;;;;;;;5017890;28;20352;-80
2022/08/01 15:04:04;;;;;;;;;;;;;;;;;;5049952;28;19913;-79
2022/08/01 15:06:30;;;;;;;;;;;;;;;;;;5050032;28;19913;-79
2022/08/01 15:08:55;;;;;;;;;;;;;;;;;;5033791;28;19917;-79
2022/08/01 15:11:21;;;;;;;;;;;;;;;;;;5033407;28;20288;-80
2022/08/01 15:14:47;;;;;;;;;;;;;;;;;;5029921;28;19980;-80
2022/08/01 15:16:31;;;;;;;;;;;;;;;;;;5033051;28;19917;-79
2022/08/01 15:18:57;;;;;;;;;;;;;;;;;;5034781;28;20288;-80
2022/08/01 15:21:22;;;;;;;;;;;;;;;;;;5033905;28;20392;-79
2022/08/01 15:23:48;;;;;;;;;;;;;;;;;;5033045;28;19974;-79
2022/08/01 15:26:13;;;;;;;;;;;;;;;;;;5033154;28;19909;-80
2022/08/01 15:28:38;;;;;;;;;;;;;;;;;;5046681;28;20340;-78
2022/08/01 15:31:04;;;;;;;;;;;;;;;;;;5046190;28;20289;-78
2022/08/01 15:33:29;;;;;;;;;;;;;;;;;;5032571;28;19952;-79
2022/08/01 15:35:55;;;;;;;;;;;;;;;;;;5049208;28;19975;-78
2022/08/01 15:38:21;;;;;;;;;;;;;;;;;;5032805;28;20200;-79
2022/08/01 15:40:46;;;;;;;;;;;;;;;;;;5032974;28;19913;-79
2022/08/01 15:43:12;;;;;;;;;;;;;;;;;;5033573;28;20357;-79
2022/08/01 15:45:38;;;;;;;;;;;;;;;;;;5032583;28;19913;-78
2022/08/01 15:48:03;;;;;;;;;;;;;;;;;;5003726;28;19919;-78
2022/08/01 15:50:29;;;;;;;;;;;;;;;;;;5013996;28;19957;-79
2022/08/01 15:52:54;;;;;;;;;;;;;;;;;;5013987;28;19949;-79
2022/08/01 15:55:20;;;;;;;;;;;;;;;;;;5013413;28;19953;-79
2022/08/01 15:57:45;;;;;;;;;;;;;;;;;;5012564;28;20337;-78
2022/08/01 16:00:11;;;;;;;;;;;;;;;;;;5012302;28;19917;-79
2022/08/01 16:02:39;;;;;;;;;;;;;;;;;;5014090;28;19909;-79
2022/08/01 16:05:05;;;;;;;;;;;;;;;;;;5032223;28;19917;-79
2022/08/01 16:07:30;;;;;;;;;;;;;;;;;;5032531;28;19913;-78
2022/08/01 16:09:55;;;;;;;;;;;;;;;;;;5032170;28;20004;-81
2022/08/01 16:12:21;;;;;;;;;;;;;;;;;;5048708;28;19943;-79
2022/08/01 16:14:46;;;;;;;;;;;;;;;;;;5032767;28;19921;-78
2022/08/01 16:17:12;;;;;;;;;;;;;;;;;;5033046;28;19918;-79
2022/08/01 16:19:37;;;;;;;;;;;;;;;;;;5028428;28;19913;-79
2022/08/01 16:22:03;;;;;;;;;;;;;;;;;;5032089;28;19913;-79
2022/08/01 16:24:29;;;;;;;;;;;;;;;;;;5015254;28;19913;-79
2022/08/01 16:26:55;;;;;;;;;;;;;;;;;;5031537;28;19917;-79
2022/08/01 16:29:20;;;;;;;;;;;;;;;;;;5033374;28;19920;-81
2022/08/01 16:31:46;;;;;;;;;;;;;;;;;;5034135;28;20357;-80
2022/08/01 16:34:15;;;;;;;;;;;;;;;;;;5031277;28;19917;-78
2022/08/01 16:36:41;;;;;;;;;;;;;;;;;;5015152;28;19923;-77